sensor_id;sensor_type;location;lat;lon;timestamp;P1;durP1;ratioP1;P2;durP2;ratioP2
62654;SDS011;48717;55.556;37.816;2022-07-23T00:00:20;8.30;;;5.00;;
62654;SDS011;48717;55.556;37.816;2022-07-23T00:02:47;12.45;;;5.32;;
62654;SDS011;48717;55.556;37.816;2022-07-23T00:05:15;14.98;;;5.55;;
62654;SDS011;48717;55.556;37.816;2022-07-23T00:07:42;10.45;;;5.97;;
62654;SDS011;48717;55.556;37.816;2022-07-23T00:10:09;8.73;;;5.00;;
62654;SDS011;48717;55.556;37.816;2022-07-23T00:12:37;14.45;;;5.22;;
62654;SDS011;48717;55.556;37.816;2022-07-23T00:15:17;10.45;;;5.30;;
62654;SDS011;48717;55.556;37.816;2022-07-23T00:17:45;8.65;;;5.57;;
62654;SDS011;48717;55.556;37.816;2022-07-23T00:20:12;9.80;;;5.55;;
62654;SDS011;48717;55.556;37.816;2022-07-23T00:22:50;10.30;;;5.65;;
62654;SDS011;48717;55.556;37.816;2022-07-23T00:28:00;9.15;;;5.28;;
62654;SDS011;48717;55.556;37.816;2022-07-23T00:30:28;11.68;;;5.25;;
62654;SDS011;48717;55.556;37.816;2022-07-23T00:32:58;13.73;;;5.70;;
62654;SDS011;48717;55.556;37.816;2022-07-23T00:35:30;11.80;;;5.32;;
62654;SDS011;48717;55.556;37.816;2022-07-23T00:38:01;8.98;;;5.10;;
62654;SDS011;48717;55.556;37.816;2022-07-23T00:40:29;9.43;;;5.32;;
62654;SDS011;48717;55.556;37.816;2022-07-23T00:42:57;7.55;;;5.18;;
62654;SDS011;48717;55.556;37.816;2022-07-23T00:45:25;7.43;;;5.00;;
62654;SDS011;48717;55.556;37.816;2022-07-23T00:47:53;8.75;;;5.32;;
62654;SDS011;48717;55.556;37.816;2022-07-23T00:50:21;8.32;;;5.32;;
62654;SDS011;48717;55.556;37.816;2022-07-23T00:52:48;8.90;;;5.10;;
62654;SDS011;48717;55.556;37.816;2022-07-23T00:55:15;12.32;;;5.82;;
62654;SDS011;48717;55.556;37.816;2022-07-23T00:57:42;15.15;;;5.35;;
62654;SDS011;48717;55.556;37.816;2022-07-23T01:00:11;7.10;;;5.20;;
62654;SDS011;48717;55.556;37.816;2022-07-23T01:02:39;15.02;;;5.68;;
62654;SDS011;48717;55.556;37.816;2022-07-23T01:05:07;9.13;;;5.10;;
62654;SDS011;48717;55.556;37.816;2022-07-23T01:07:35;10.18;;;5.40;;
62654;SDS011;48717;55.556;37.816;2022-07-23T01:10:04;10.35;;;5.40;;
62654;SDS011;48717;55.556;37.816;2022-07-23T01:12:52;9.60;;;5.55;;
62654;SDS011;48717;55.556;37.816;2022-07-23T01:15:20;8.00;;;5.47;;
62654;SDS011;48717;55.556;37.816;2022-07-23T01:17:48;15.10;;;5.20;;
62654;SDS011;48717;55.556;37.816;2022-07-23T01:20:15;9.30;;;5.22;;
62654;SDS011;48717;55.556;37.816;2022-07-23T01:22:42;7.63;;;5.63;;
62654;SDS011;48717;55.556;37.816;2022-07-23T01:25:10;9.38;;;5.47;;
62654;SDS011;48717;55.556;37.816;2022-07-23T01:27:41;9.35;;;5.45;;
62654;SDS011;48717;55.556;37.816;2022-07-23T01:30:09;10.70;;;5.10;;
62654;SDS011;48717;55.556;37.816;2022-07-23T01:32:36;7.80;;;5.97;;
62654;SDS011;48717;55.556;37.816;2022-07-23T01:35:04;11.25;;;5.50;;
62654;SDS011;48717;55.556;37.816;2022-07-23T01:37:34;9.85;;;5.55;;
62654;SDS011;48717;55.556;37.816;2022-07-23T01:40:02;8.57;;;5.40;;
62654;SDS011;48717;55.556;37.816;2022-07-23T01:42:31;9.27;;;5.40;;
62654;SDS011;48717;55.556;37.816;2022-07-23T01:45:02;15.88;;;5.78;;
62654;SDS011;48717;55.556;37.816;2022-07-23T01:47:31;10.82;;;5.72;;
62654;SDS011;48717;55.556;37.816;2022-07-23T01:49:59;9.90;;;5.53;;
62654;SDS011;48717;55.556;37.816;2022-07-23T01:52:44;8.45;;;5.18;;
62654;SDS011;48717;55.556;37.816;2022-07-23T01:55:11;7.63;;;5.22;;
62654;SDS011;48717;55.556;37.816;2022-07-23T01:57:46;8.98;;;5.28;;
62654;SDS011;48717;55.556;37.816;2022-07-23T02:00:15;8.07;;;5.22;;
62654;SDS011;48717;55.556;37.816;2022-07-23T02:02:46;7.43;;;5.35;;
62654;SDS011;48717;55.556;37.816;2022-07-23T02:05:14;9.48;;;5.40;;
62654;SDS011;48717;55.556;37.816;2022-07-23T02:07:41;10.20;;;5.18;;
62654;SDS011;48717;55.556;37.816;2022-07-23T02:10:09;12.98;;;5.20;;
62654;SDS011;48717;55.556;37.816;2022-07-23T02:12:37;9.93;;;5.68;;
62654;SDS011;48717;55.556;37.816;2022-07-23T02:15:24;8.80;;;6.20;;
62654;SDS011;48717;55.556;37.816;2022-07-23T02:17:51;11.32;;;5.57;;
62654;SDS011;48717;55.556;37.816;2022-07-23T02:20:18;9.82;;;5.70;;
62654;SDS011;48717;55.556;37.816;2022-07-23T02:22:46;12.02;;;5.57;;
62654;SDS011;48717;55.556;37.816;2022-07-23T02:25:13;8.70;;;5.72;;
62654;SDS011;48717;55.556;37.816;2022-07-23T02:27:41;10.27;;;5.78;;
62654;SDS011;48717;55.556;37.816;2022-07-23T02:30:08;12.07;;;6.10;;
62654;SDS011;48717;55.556;37.816;2022-07-23T02:32:36;10.57;;;6.10;;
62654;SDS011;48717;55.556;37.816;2022-07-23T02:35:09;12.60;;;5.53;;
62654;SDS011;48717;55.556;37.816;2022-07-23T02:37:36;10.80;;;6.15;;
62654;SDS011;48717;55.556;37.816;2022-07-23T02:40:03;9.02;;;6.05;;
62654;SDS011;48717;55.556;37.816;2022-07-23T02:42:34;9.73;;;6.15;;
62654;SDS011;48717;55.556;37.816;2022-07-23T02:45:01;8.55;;;6.15;;
62654;SDS011;48717;55.556;37.816;2022-07-23T02:47:28;11.55;;;5.70;;
62654;SDS011;48717;55.556;37.816;2022-07-23T02:49:56;9.98;;;5.90;;
62654;SDS011;48717;55.556;37.816;2022-07-23T02:52:24;10.35;;;6.10;;
62654;SDS011;48717;55.556;37.816;2022-07-23T02:54:51;9.13;;;5.85;;
62654;SDS011;48717;55.556;37.816;2022-07-23T02:57:18;11.50;;;6.32;;
62654;SDS011;48717;55.556;37.816;2022-07-23T02:59:45;10.82;;;6.10;;
62654;SDS011;48717;55.556;37.816;2022-07-23T03:02:12;11.48;;;7.25;;
62654;SDS011;48717;55.556;37.816;2022-07-23T03:04:40;9.88;;;6.03;;
62654;SDS011;48717;55.556;37.816;2022-07-23T03:07:10;12.30;;;6.32;;
62654;SDS011;48717;55.556;37.816;2022-07-23T03:09:37;10.30;;;6.60;;
62654;SDS011;48717;55.556;37.816;2022-07-23T03:12:06;11.30;;;6.35;;
62654;SDS011;48717;55.556;37.816;2022-07-23T03:14:40;9.57;;;6.68;;
62654;SDS011;48717;55.556;37.816;2022-07-23T03:17:08;9.57;;;6.75;;
62654;SDS011;48717;55.556;37.816;2022-07-23T03:19:35;12.43;;;6.72;;
62654;SDS011;48717;55.556;37.816;2022-07-23T03:22:04;12.75;;;6.78;;
62654;SDS011;48717;55.556;37.816;2022-07-23T03:24:32;11.15;;;6.53;;
62654;SDS011;48717;55.556;37.816;2022-07-23T03:27:20;9.57;;;6.80;;
62654;SDS011;48717;55.556;37.816;2022-07-23T03:29:51;11.30;;;6.80;;
62654;SDS011;48717;55.556;37.816;2022-07-23T03:32:20;12.63;;;6.78;;
62654;SDS011;48717;55.556;37.816;2022-07-23T03:34:48;13.38;;;6.88;;
62654;SDS011;48717;55.556;37.816;2022-07-23T03:37:15;12.68;;;7.28;;
62654;SDS011;48717;55.556;37.816;2022-07-23T03:39:44;13.65;;;7.30;;
62654;SDS011;48717;55.556;37.816;2022-07-23T03:42:12;10.48;;;6.53;;
62654;SDS011;48717;55.556;37.816;2022-07-23T03:44:39;12.50;;;7.70;;
62654;SDS011;48717;55.556;37.816;2022-07-23T03:47:06;14.50;;;6.97;;
62654;SDS011;48717;55.556;37.816;2022-07-23T03:49:33;9.40;;;6.72;;
62654;SDS011;48717;55.556;37.816;2022-07-23T03:52:00;11.23;;;6.82;;
62654;SDS011;48717;55.556;37.816;2022-07-23T03:54:28;14.57;;;7.00;;
62654;SDS011;48717;55.556;37.816;2022-07-23T03:56:55;8.55;;;6.43;;
62654;SDS011;48717;55.556;37.816;2022-07-23T03:59:22;9.40;;;7.60;;
62654;SDS011;48717;55.556;37.816;2022-07-23T04:01:50;15.57;;;6.88;;
62654;SDS011;48717;55.556;37.816;2022-07-23T04:04:17;9.27;;;7.10;;
62654;SDS011;48717;55.556;37.816;2022-07-23T04:06:44;16.90;;;10.68;;
62654;SDS011;48717;55.556;37.816;2022-07-23T04:09:13;20.00;;;11.82;;
62654;SDS011;48717;55.556;37.816;2022-07-23T04:11:41;11.02;;;7.78;;
62654;SDS011;48717;55.556;37.816;2022-07-23T04:14:08;16.35;;;9.30;;
62654;SDS011;48717;55.556;37.816;2022-07-23T04:16:35;12.27;;;8.50;;
62654;SDS011;48717;55.556;37.816;2022-07-23T04:19:03;15.70;;;11.50;;
62654;SDS011;48717;55.556;37.816;2022-07-23T04:21:40;10.30;;;8.70;;
62654;SDS011;48717;55.556;37.816;2022-07-23T04:24:08;9.32;;;7.18;;
62654;SDS011;48717;55.556;37.816;2022-07-23T04:26:35;12.77;;;6.97;;
62654;SDS011;48717;55.556;37.816;2022-07-23T04:29:03;14.40;;;10.75;;
62654;SDS011;48717;55.556;37.816;2022-07-23T04:31:31;10.55;;;6.97;;
62654;SDS011;48717;55.556;37.816;2022-07-23T04:34:03;14.38;;;10.45;;
62654;SDS011;48717;55.556;37.816;2022-07-23T04:36:31;9.65;;;8.45;;
62654;SDS011;48717;55.556;37.816;2022-07-23T04:38:58;12.07;;;9.63;;
62654;SDS011;48717;55.556;37.816;2022-07-23T04:41:26;10.48;;;7.18;;
62654;SDS011;48717;55.556;37.816;2022-07-23T04:43:53;11.85;;;7.88;;
62654;SDS011;48717;55.556;37.816;2022-07-23T04:46:20;11.32;;;6.78;;
62654;SDS011;48717;55.556;37.816;2022-07-23T04:48:50;12.63;;;8.65;;
62654;SDS011;48717;55.556;37.816;2022-07-23T04:51:17;15.68;;;7.60;;
62654;SDS011;48717;55.556;37.816;2022-07-23T04:53:44;12.48;;;7.60;;
62654;SDS011;48717;55.556;37.816;2022-07-23T04:56:12;10.60;;;6.88;;
62654;SDS011;48717;55.556;37.816;2022-07-23T04:58:39;11.45;;;8.00;;
62654;SDS011;48717;55.556;37.816;2022-07-23T05:01:06;13.05;;;7.50;;
62654;SDS011;48717;55.556;37.816;2022-07-23T05:03:34;11.02;;;7.88;;
62654;SDS011;48717;55.556;37.816;2022-07-23T05:06:02;10.48;;;7.38;;
62654;SDS011;48717;55.556;37.816;2022-07-23T05:08:30;12.40;;;7.60;;
62654;SDS011;48717;55.556;37.816;2022-07-23T05:10:59;16.60;;;8.40;;
62654;SDS011;48717;55.556;37.816;2022-07-23T05:13:27;11.32;;;7.45;;
62654;SDS011;48717;55.556;37.816;2022-07-23T05:15:54;12.90;;;7.38;;
62654;SDS011;48717;55.556;37.816;2022-07-23T05:18:23;15.52;;;8.10;;
62654;SDS011;48717;55.556;37.816;2022-07-23T05:20:50;10.60;;;7.55;;
62654;SDS011;48717;55.556;37.816;2022-07-23T05:23:19;11.25;;;7.68;;
62654;SDS011;48717;55.556;37.816;2022-07-23T05:25:48;13.60;;;8.10;;
62654;SDS011;48717;55.556;37.816;2022-07-23T05:28:16;10.15;;;7.50;;
62654;SDS011;48717;55.556;37.816;2022-07-23T05:30:49;11.38;;;7.93;;
62654;SDS011;48717;55.556;37.816;2022-07-23T05:33:18;14.52;;;7.90;;
62654;SDS011;48717;55.556;37.816;2022-07-23T05:35:46;13.45;;;7.82;;
62654;SDS011;48717;55.556;37.816;2022-07-23T05:38:40;14.18;;;8.02;;
62654;SDS011;48717;55.556;37.816;2022-07-23T05:41:08;14.70;;;7.10;;
62654;SDS011;48717;55.556;37.816;2022-07-23T05:43:35;13.43;;;7.35;;
62654;SDS011;48717;55.556;37.816;2022-07-23T05:46:08;15.93;;;7.75;;
62654;SDS011;48717;55.556;37.816;2022-07-23T05:48:38;13.98;;;7.70;;
62654;SDS011;48717;55.556;37.816;2022-07-23T05:51:11;13.07;;;7.40;;
62654;SDS011;48717;55.556;37.816;2022-07-23T05:53:38;13.00;;;7.25;;
62654;SDS011;48717;55.556;37.816;2022-07-23T05:56:09;24.60;;;9.18;;
62654;SDS011;48717;55.556;37.816;2022-07-23T05:58:37;13.32;;;7.43;;
62654;SDS011;48717;55.556;37.816;2022-07-23T06:01:04;15.43;;;7.53;;
62654;SDS011;48717;55.556;37.816;2022-07-23T06:03:40;10.30;;;7.00;;
62654;SDS011;48717;55.556;37.816;2022-07-23T06:06:08;12.68;;;7.18;;
62654;SDS011;48717;55.556;37.816;2022-07-23T06:08:35;21.67;;;7.70;;
62654;SDS011;48717;55.556;37.816;2022-07-23T06:11:06;16.83;;;7.60;;
62654;SDS011;48717;55.556;37.816;2022-07-23T06:13:33;25.80;;;8.00;;
62654;SDS011;48717;55.556;37.816;2022-07-23T06:16:00;16.90;;;7.22;;
62654;SDS011;48717;55.556;37.816;2022-07-23T06:18:29;12.80;;;6.60;;
62654;SDS011;48717;55.556;37.816;2022-07-23T06:20:56;13.75;;;7.05;;
62654;SDS011;48717;55.556;37.816;2022-07-23T06:23:26;11.13;;;6.72;;
62654;SDS011;48717;55.556;37.816;2022-07-23T06:25:53;16.75;;;7.18;;
62654;SDS011;48717;55.556;37.816;2022-07-23T06:28:20;9.95;;;6.80;;
62654;SDS011;48717;55.556;37.816;2022-07-23T06:30:47;11.23;;;7.22;;
62654;SDS011;48717;55.556;37.816;2022-07-23T06:33:15;13.27;;;7.20;;
62654;SDS011;48717;55.556;37.816;2022-07-23T06:35:43;12.50;;;6.60;;
62654;SDS011;48717;55.556;37.816;2022-07-23T06:38:10;10.75;;;7.25;;
62654;SDS011;48717;55.556;37.816;2022-07-23T06:40:37;23.65;;;7.28;;
62654;SDS011;48717;55.556;37.816;2022-07-23T06:43:05;15.43;;;7.07;;
62654;SDS011;48717;55.556;37.816;2022-07-23T06:45:36;14.70;;;6.63;;
62654;SDS011;48717;55.556;37.816;2022-07-23T06:48:03;11.35;;;7.20;;
62654;SDS011;48717;55.556;37.816;2022-07-23T06:50:31;10.13;;;6.88;;
62654;SDS011;48717;55.556;37.816;2022-07-23T06:52:58;12.90;;;7.57;;
62654;SDS011;48717;55.556;37.816;2022-07-23T06:55:25;12.73;;;7.88;;
62654;SDS011;48717;55.556;37.816;2022-07-23T06:57:53;8.02;;;6.97;;
62654;SDS011;48717;55.556;37.816;2022-07-23T07:00:21;7.15;;;6.45;;
62654;SDS011;48717;55.556;37.816;2022-07-23T07:02:48;11.10;;;6.88;;
62654;SDS011;48717;55.556;37.816;2022-07-23T07:05:15;10.95;;;6.30;;
62654;SDS011;48717;55.556;37.816;2022-07-23T07:07:43;7.97;;;5.85;;
62654;SDS011;48717;55.556;37.816;2022-07-23T07:10:10;8.68;;;6.35;;
62654;SDS011;48717;55.556;37.816;2022-07-23T07:12:41;8.82;;;6.97;;
62654;SDS011;48717;55.556;37.816;2022-07-23T07:15:09;8.60;;;6.20;;
62654;SDS011;48717;55.556;37.816;2022-07-23T07:17:36;10.60;;;6.85;;
62654;SDS011;48717;55.556;37.816;2022-07-23T07:20:04;8.18;;;6.57;;
62654;SDS011;48717;55.556;37.816;2022-07-23T07:22:32;13.95;;;7.22;;
62654;SDS011;48717;55.556;37.816;2022-07-23T07:24:59;9.02;;;6.85;;
62654;SDS011;48717;55.556;37.816;2022-07-23T07:27:26;9.93;;;6.60;;
62654;SDS011;48717;55.556;37.816;2022-07-23T07:29:53;10.80;;;6.38;;
62654;SDS011;48717;55.556;37.816;2022-07-23T07:32:20;8.35;;;6.57;;
62654;SDS011;48717;55.556;37.816;2022-07-23T07:35:08;10.98;;;9.60;;
62654;SDS011;48717;55.556;37.816;2022-07-23T07:37:35;11.68;;;6.55;;
62654;SDS011;48717;55.556;37.816;2022-07-23T07:40:02;15.40;;;7.47;;
62654;SDS011;48717;55.556;37.816;2022-07-23T07:42:30;9.43;;;7.32;;
62654;SDS011;48717;55.556;37.816;2022-07-23T07:44:58;9.55;;;7.00;;
62654;SDS011;48717;55.556;37.816;2022-07-23T07:47:26;11.30;;;6.60;;
62654;SDS011;48717;55.556;37.816;2022-07-23T07:49:53;18.45;;;6.53;;
62654;SDS011;48717;55.556;37.816;2022-07-23T07:52:20;9.15;;;6.65;;
62654;SDS011;48717;55.556;37.816;2022-07-23T07:54:48;10.85;;;6.93;;
62654;SDS011;48717;55.556;37.816;2022-07-23T07:57:15;8.57;;;6.50;;
62654;SDS011;48717;55.556;37.816;2022-07-23T07:59:42;11.38;;;6.97;;
62654;SDS011;48717;55.556;37.816;2022-07-23T08:02:11;6.90;;;6.30;;
62654;SDS011;48717;55.556;37.816;2022-07-23T08:04:38;8.80;;;6.75;;
62654;SDS011;48717;55.556;37.816;2022-07-23T08:07:05;12.13;;;7.03;;
62654;SDS011;48717;55.556;37.816;2022-07-23T08:09:32;14.82;;;7.90;;
62654;SDS011;48717;55.556;37.816;2022-07-23T08:11:59;7.82;;;7.03;;
62654;SDS011;48717;55.556;37.816;2022-07-23T08:14:27;8.13;;;7.25;;
62654;SDS011;48717;55.556;37.816;2022-07-23T08:16:54;14.65;;;10.43;;
62654;SDS011;48717;55.556;37.816;2022-07-23T08:19:40;11.05;;;7.30;;
62654;SDS011;48717;55.556;37.816;2022-07-23T08:22:07;9.25;;;6.68;;
62654;SDS011;48717;55.556;37.816;2022-07-23T08:24:34;10.27;;;8.68;;
62654;SDS011;48717;55.556;37.816;2022-07-23T08:27:01;11.20;;;7.05;;
62654;SDS011;48717;55.556;37.816;2022-07-23T08:29:29;9.77;;;6.80;;
62654;SDS011;48717;55.556;37.816;2022-07-23T08:31:56;11.30;;;7.78;;
62654;SDS011;48717;55.556;37.816;2022-07-23T08:34:24;17.08;;;9.25;;
62654;SDS011;48717;55.556;37.816;2022-07-23T08:36:51;10.10;;;7.25;;
62654;SDS011;48717;55.556;37.816;2022-07-23T08:39:18;9.55;;;7.03;;
62654;SDS011;48717;55.556;37.816;2022-07-23T08:41:45;11.43;;;9.43;;
62654;SDS011;48717;55.556;37.816;2022-07-23T08:44:15;14.38;;;11.75;;
62654;SDS011;48717;55.556;37.816;2022-07-23T08:46:43;14.02;;;9.18;;
62654;SDS011;48717;55.556;37.816;2022-07-23T08:49:11;15.60;;;8.40;;
62654;SDS011;48717;55.556;37.816;2022-07-23T08:51:39;11.25;;;7.63;;
62654;SDS011;48717;55.556;37.816;2022-07-23T08:54:06;11.85;;;7.57;;
62654;SDS011;48717;55.556;37.816;2022-07-23T08:56:34;9.48;;;8.52;;
62654;SDS011;48717;55.556;37.816;2022-07-23T08:59:01;11.35;;;8.05;;
62654;SDS011;48717;55.556;37.816;2022-07-23T09:01:29;11.98;;;10.15;;
62654;SDS011;48717;55.556;37.816;2022-07-23T09:03:56;11.63;;;8.20;;
62654;SDS011;48717;55.556;37.816;2022-07-23T09:06:24;9.95;;;8.38;;
62654;SDS011;48717;55.556;37.816;2022-07-23T09:08:51;10.32;;;9.23;;
62654;SDS011;48717;55.556;37.816;2022-07-23T09:11:18;12.43;;;10.27;;
62654;SDS011;48717;55.556;37.816;2022-07-23T09:13:49;10.23;;;9.18;;
62654;SDS011;48717;55.556;37.816;2022-07-23T09:16:29;11.30;;;7.72;;
62654;SDS011;48717;55.556;37.816;2022-07-23T09:19:02;11.73;;;10.50;;
62654;SDS011;48717;55.556;37.816;2022-07-23T09:21:33;8.65;;;7.35;;
62654;SDS011;48717;55.556;37.816;2022-07-23T09:26:40;8.63;;;7.82;;
62654;SDS011;48717;55.556;37.816;2022-07-23T09:29:10;8.15;;;7.35;;
62654;SDS011;48717;55.556;37.816;2022-07-23T09:31:48;9.52;;;7.47;;
62654;SDS011;48717;55.556;37.816;2022-07-23T09:36:54;13.27;;;11.93;;
62654;SDS011;48717;55.556;37.816;2022-07-23T09:39:30;8.50;;;7.70;;
62654;SDS011;48717;55.556;37.816;2022-07-23T09:42:18;12.55;;;11.35;;
62654;SDS011;48717;55.556;37.816;2022-07-23T09:44:53;14.18;;;12.85;;
62654;SDS011;48717;55.556;37.816;2022-07-23T09:47:22;9.00;;;7.72;;
62654;SDS011;48717;55.556;37.816;2022-07-23T09:52:28;12.02;;;8.13;;
62654;SDS011;48717;55.556;37.816;2022-07-23T09:55:05;10.45;;;8.93;;
62654;SDS011;48717;55.556;37.816;2022-07-23T09:57:33;31.65;;;10.77;;
62654;SDS011;48717;55.556;37.816;2022-07-23T10:00:03;12.10;;;9.68;;
62654;SDS011;48717;55.556;37.816;2022-07-23T10:02:33;15.82;;;13.15;;
62654;SDS011;48717;55.556;37.816;2022-07-23T10:05:19;10.23;;;9.00;;
62654;SDS011;48717;55.556;37.816;2022-07-23T10:08:11;19.00;;;8.70;;
62654;SDS011;48717;55.556;37.816;2022-07-23T10:10:57;8.50;;;7.53;;
62654;SDS011;48717;55.556;37.816;2022-07-23T10:13:38;8.05;;;7.13;;
62654;SDS011;48717;55.556;37.816;2022-07-23T10:16:30;9.30;;;7.55;;
62654;SDS011;48717;55.556;37.816;2022-07-23T10:18:57;10.38;;;9.38;;
62654;SDS011;48717;55.556;37.816;2022-07-23T10:21:27;10.10;;;8.15;;
62654;SDS011;48717;55.556;37.816;2022-07-23T10:29:52;12.75;;;9.77;;
62654;SDS011;48717;55.556;37.816;2022-07-23T10:35:43;10.35;;;8.02;;
62654;SDS011;48717;55.556;37.816;2022-07-23T10:40:58;11.43;;;9.15;;
62654;SDS011;48717;55.556;37.816;2022-07-23T10:43:28;10.50;;;9.13;;
62654;SDS011;48717;55.556;37.816;2022-07-23T10:46:20;10.25;;;8.20;;
62654;SDS011;48717;55.556;37.816;2022-07-23T10:54:55;20.42;;;9.85;;
62654;SDS011;48717;55.556;37.816;2022-07-23T10:57:24;13.90;;;9.35;;
62654;SDS011;48717;55.556;37.816;2022-07-23T11:02:30;13.27;;;9.57;;
62654;SDS011;48717;55.556;37.816;2022-07-23T11:05:03;17.83;;;8.50;;
62654;SDS011;48717;55.556;37.816;2022-07-23T11:07:33;13.70;;;9.30;;
62654;SDS011;48717;55.556;37.816;2022-07-23T11:10:01;14.20;;;8.50;;
62654;SDS011;48717;55.556;37.816;2022-07-23T11:12:32;15.15;;;8.10;;
62654;SDS011;48717;55.556;37.816;2022-07-23T11:17:33;22.92;;;8.45;;
62654;SDS011;48717;55.556;37.816;2022-07-23T11:22:39;13.25;;;8.68;;
62654;SDS011;48717;55.556;37.816;2022-07-23T11:25:13;13.38;;;9.57;;
62654;SDS011;48717;55.556;37.816;2022-07-23T11:27:50;13.70;;;8.73;;
62654;SDS011;48717;55.556;37.816;2022-07-23T11:35:35;21.20;;;9.80;;
62654;SDS011;48717;55.556;37.816;2022-07-23T11:38:20;12.70;;;9.60;;
62654;SDS011;48717;55.556;37.816;2022-07-23T11:40:49;14.73;;;10.32;;
62654;SDS011;48717;55.556;37.816;2022-07-23T11:43:19;22.23;;;11.82;;
62654;SDS011;48717;55.556;37.816;2022-07-23T11:45:48;14.52;;;9.40;;
62654;SDS011;48717;55.556;37.816;2022-07-23T11:48:20;11.00;;;8.75;;
62654;SDS011;48717;55.556;37.816;2022-07-23T11:50:51;9.77;;;8.77;;
62654;SDS011;48717;55.556;37.816;2022-07-23T11:53:27;11.18;;;9.00;;
62654;SDS011;48717;55.556;37.816;2022-07-23T11:56:07;13.13;;;9.38;;
62654;SDS011;48717;55.556;37.816;2022-07-23T11:58:37;13.88;;;10.85;;
62654;SDS011;48717;55.556;37.816;2022-07-23T12:01:05;10.23;;;9.02;;
62654;SDS011;48717;55.556;37.816;2022-07-23T12:03:48;22.10;;;9.02;;
62654;SDS011;48717;55.556;37.816;2022-07-23T12:06:17;11.60;;;9.27;;
62654;SDS011;48717;55.556;37.816;2022-07-23T12:08:45;12.27;;;8.65;;
62654;SDS011;48717;55.556;37.816;2022-07-23T12:11:12;13.27;;;8.90;;
62654;SDS011;48717;55.556;37.816;2022-07-23T12:13:40;16.40;;;10.55;;
62654;SDS011;48717;55.556;37.816;2022-07-23T12:16:09;14.25;;;8.45;;
62654;SDS011;48717;55.556;37.816;2022-07-23T12:18:37;24.50;;;9.98;;
62654;SDS011;48717;55.556;37.816;2022-07-23T12:21:04;15.43;;;8.75;;
62654;SDS011;48717;55.556;37.816;2022-07-23T12:23:33;24.77;;;10.43;;
62654;SDS011;48717;55.556;37.816;2022-07-23T12:26:03;21.80;;;8.70;;
62654;SDS011;48717;55.556;37.816;2022-07-23T12:28:31;18.23;;;9.05;;
62654;SDS011;48717;55.556;37.816;2022-07-23T12:33:32;15.90;;;8.38;;
62654;SDS011;48717;55.556;37.816;2022-07-23T12:36:03;11.48;;;9.40;;
62654;SDS011;48717;55.556;37.816;2022-07-23T12:41:09;38.88;;;10.38;;
62654;SDS011;48717;55.556;37.816;2022-07-23T12:43:38;26.50;;;9.82;;
62654;SDS011;48717;55.556;37.816;2022-07-23T12:46:18;18.10;;;9.90;;
62654;SDS011;48717;55.556;37.816;2022-07-23T12:51:22;20.25;;;8.75;;
62654;SDS011;48717;55.556;37.816;2022-07-23T12:53:59;11.90;;;8.85;;
62654;SDS011;48717;55.556;37.816;2022-07-23T12:56:33;13.00;;;8.48;;
62654;SDS011;48717;55.556;37.816;2022-07-23T12:59:08;24.48;;;10.10;;
62654;SDS011;48717;55.556;37.816;2022-07-23T13:01:41;9.52;;;8.30;;
62654;SDS011;48717;55.556;37.816;2022-07-23T13:04:12;14.15;;;9.45;;
62654;SDS011;48717;55.556;37.816;2022-07-23T13:06:43;18.42;;;10.05;;
62654;SDS011;48717;55.556;37.816;2022-07-23T13:09:14;15.55;;;9.10;;
62654;SDS011;48717;55.556;37.816;2022-07-23T13:11:46;10.65;;;8.18;;
62654;SDS011;48717;55.556;37.816;2022-07-23T13:14:15;11.93;;;9.30;;
62654;SDS011;48717;55.556;37.816;2022-07-23T13:16:47;14.40;;;9.82;;
62654;SDS011;48717;55.556;37.816;2022-07-23T13:19:16;10.93;;;8.40;;
62654;SDS011;48717;55.556;37.816;2022-07-23T13:21:45;17.98;;;9.30;;
62654;SDS011;48717;55.556;37.816;2022-07-23T13:24:12;9.43;;;8.57;;
62654;SDS011;48717;55.556;37.816;2022-07-23T13:26:40;10.77;;;8.68;;
62654;SDS011;48717;55.556;37.816;2022-07-23T13:29:07;12.75;;;8.30;;
62654;SDS011;48717;55.556;37.816;2022-07-23T13:31:36;12.18;;;8.18;;
62654;SDS011;48717;55.556;37.816;2022-07-23T13:34:05;14.38;;;7.90;;
62654;SDS011;48717;55.556;37.816;2022-07-23T13:36:34;10.40;;;8.10;;
62654;SDS011;48717;55.556;37.816;2022-07-23T13:39:02;10.45;;;8.57;;
62654;SDS011;48717;55.556;37.816;2022-07-23T13:41:32;10.85;;;8.05;;
62654;SDS011;48717;55.556;37.816;2022-07-23T13:43:59;15.55;;;9.75;;
62654;SDS011;48717;55.556;37.816;2022-07-23T13:46:28;13.00;;;8.77;;
62654;SDS011;48717;55.556;37.816;2022-07-23T13:48:55;10.95;;;8.38;;
62654;SDS011;48717;55.556;37.816;2022-07-23T13:51:22;12.75;;;7.95;;
62654;SDS011;48717;55.556;37.816;2022-07-23T13:53:51;11.75;;;8.73;;
62654;SDS011;48717;55.556;37.816;2022-07-23T13:56:18;8.40;;;7.60;;
62654;SDS011;48717;55.556;37.816;2022-07-23T13:58:47;11.93;;;10.00;;
62654;SDS011;48717;55.556;37.816;2022-07-23T14:01:14;13.07;;;8.25;;
62654;SDS011;48717;55.556;37.816;2022-07-23T14:03:43;11.35;;;8.10;;
62654;SDS011;48717;55.556;37.816;2022-07-23T14:06:11;10.68;;;8.50;;
62654;SDS011;48717;55.556;37.816;2022-07-23T14:08:58;12.35;;;8.90;;
62654;SDS011;48717;55.556;37.816;2022-07-23T14:11:26;14.77;;;10.35;;
62654;SDS011;48717;55.556;37.816;2022-07-23T14:13:55;10.38;;;7.80;;
62654;SDS011;48717;55.556;37.816;2022-07-23T14:16:22;13.90;;;9.50;;
62654;SDS011;48717;55.556;37.816;2022-07-23T14:18:49;9.93;;;7.85;;
62654;SDS011;48717;55.556;37.816;2022-07-23T14:21:17;11.27;;;8.60;;
62654;SDS011;48717;55.556;37.816;2022-07-23T14:23:44;9.80;;;8.88;;
62654;SDS011;48717;55.556;37.816;2022-07-23T14:26:11;19.20;;;9.18;;
62654;SDS011;48717;55.556;37.816;2022-07-23T14:31:07;11.50;;;8.15;;
62654;SDS011;48717;55.556;37.816;2022-07-23T14:33:47;11.82;;;8.70;;
62654;SDS011;48717;55.556;37.816;2022-07-23T14:36:15;10.07;;;9.05;;
62654;SDS011;48717;55.556;37.816;2022-07-23T14:38:43;15.68;;;9.18;;
62654;SDS011;48717;55.556;37.816;2022-07-23T14:41:10;11.02;;;8.40;;
62654;SDS011;48717;55.556;37.816;2022-07-23T14:43:37;11.48;;;8.95;;
62654;SDS011;48717;55.556;37.816;2022-07-23T14:46:04;15.88;;;8.93;;
62654;SDS011;48717;55.556;37.816;2022-07-23T14:48:32;13.23;;;8.90;;
62654;SDS011;48717;55.556;37.816;2022-07-23T14:50:59;14.23;;;9.18;;
62654;SDS011;48717;55.556;37.816;2022-07-23T14:53:26;15.10;;;9.02;;
62654;SDS011;48717;55.556;37.816;2022-07-23T14:55:53;16.85;;;9.23;;
62654;SDS011;48717;55.556;37.816;2022-07-23T14:58:24;17.53;;;9.50;;
62654;SDS011;48717;55.556;37.816;2022-07-23T15:00:52;12.77;;;8.77;;
62654;SDS011;48717;55.556;37.816;2022-07-23T15:03:19;22.65;;;9.90;;
62654;SDS011;48717;55.556;37.816;2022-07-23T15:05:46;14.68;;;9.38;;
62654;SDS011;48717;55.556;37.816;2022-07-23T15:08:14;16.75;;;8.73;;
62654;SDS011;48717;55.556;37.816;2022-07-23T15:10:48;19.15;;;10.75;;
62654;SDS011;48717;55.556;37.816;2022-07-23T15:13:15;21.35;;;10.27;;
62654;SDS011;48717;55.556;37.816;2022-07-23T15:15:44;24.23;;;12.30;;
62654;SDS011;48717;55.556;37.816;2022-07-23T15:18:21;17.45;;;10.77;;
62654;SDS011;48717;55.556;37.816;2022-07-23T15:20:48;21.42;;;11.55;;
62654;SDS011;48717;55.556;37.816;2022-07-23T15:23:16;26.23;;;10.07;;
62654;SDS011;48717;55.556;37.816;2022-07-23T15:25:43;17.02;;;9.77;;
62654;SDS011;48717;55.556;37.816;2022-07-23T15:28:16;13.85;;;9.10;;